Time;durP1;ratioP1;P1;durP2;ratioP2;P2;SDS_P1;SDS_P2;PMS_P1;PMS_P2;Temp;Humidity;BMP_temperature;BMP_pressure;BME280_temperature;BME280_humidity;BME280_pressure;Samples;Min_cycle;Max_cycle;Signal;HPM_P1;HPM_P2
2022/12/03 00:02:25;;;;;;;24.73;12.48;;;;;;;3.11;72.92;102250.97;5069514;28;20036;-91
2022/12/03 00:04:50;;;;;;;31.15;13.50;;;;;;;3.14;73.06;102247.56;5070840;28;20055;-91
2022/12/03 00:07:15;;;;;;;28.52;11.98;;;;;;;3.10;72.78;102243.13;5088697;28;20032;-90
2022/12/03 00:09:41;;;;;;;22.48;11.30;;;;;;;3.14;72.40;102242.31;5088709;28;20490;-90
2022/12/03 00:12:06;;;;;;;25.10;12.30;;;;;;;3.15;73.34;102244.94;5067643;28;20028;-90
2022/12/03 00:14:32;;;;;;;27.83;13.18;;;;;;;3.17;73.02;102244.94;5088580;28;20039;-90
2022/12/03 00:16:57;;;;;;;27.83;12.77;;;;;;;3.10;73.03;102235.28;5070455;28;20019;-90
2022/12/03 00:19:22;;;;;;;27.38;13.38;;;;;;;3.12;73.06;102230.94;5057418;28;20036;-90
2022/12/03 00:21:47;;;;;;;27.92;12.18;;;;;;;3.15;73.36;102233.63;5083334;28;20378;-90
2022/12/03 00:24:13;;;;;;;24.90;12.02;;;;;;;3.13;72.74;102230.13;5088684;28;20032;-91
2022/12/03 00:26:38;;;;;;;30.90;13.07;;;;;;;3.15;72.50;102223.16;5091195;28;20024;-90
2022/12/03 00:29:03;;;;;;;28.38;13.05;;;;;;;3.11;72.90;102214.41;5074685;28;20028;-90
2022/12/03 00:31:32;;;;;;;28.08;12.57;;;;;;;3.11;72.51;102229.22;5084368;28;20024;-90
2022/12/03 00:33:57;;;;;;;27.52;12.75;;;;;;;3.10;72.63;102223.09;5085101;28;20024;-91
2022/12/03 00:36:22;;;;;;;32.05;13.23;;;;;;;3.10;72.58;102220.50;5091039;28;20517;-91
2022/12/03 00:38:47;;;;;;;30.25;13.77;;;;;;;3.09;72.78;102212.66;5091694;28;20450;-90
2022/12/03 00:41:13;;;;;;;26.20;12.82;;;;;;;3.02;72.63;102209.06;5087899;28;20020;-90
2022/12/03 00:43:38;;;;;;;30.55;13.20;;;;;;;3.14;72.81;102222.28;5091595;28;20065;-90
2022/12/03 00:46:03;;;;;;;26.55;12.57;;;;;;;3.15;72.80;102223.16;5092990;28;20026;-90
2022/12/03 00:48:29;;;;;;;30.00;13.75;;;;;;;3.11;72.77;102217.00;5086594;28;20016;-91
2022/12/03 00:50:54;;;;;;;31.00;13.57;;;;;;;3.09;72.79;102220.50;5083167;28;20052;-90
2022/12/03 00:53:19;;;;;;;30.42;13.38;;;;;;;3.05;72.70;102214.34;5071692;28;20369;-91
2022/12/03 00:55:44;;;;;;;28.25;12.65;;;;;;;3.02;73.09;102209.94;5082149;28;20499;-90
2022/12/03 00:58:10;;;;;;;31.13;14.55;;;;;;;3.06;73.13;102218.69;5070396;28;20031;-91
2022/12/03 01:00:36;;;;;;;29.50;14.65;;;;;;;3.05;72.98;102223.03;5084493;28;20390;-90
2022/12/03 01:03:02;;;;;;;29.00;13.85;;;;;;;3.13;72.88;102232.72;5090560;28;20063;-90
2022/12/03 01:05:27;;;;;;;31.40;13.95;;;;;;;3.12;73.28;102233.56;5070022;28;20054;-90
2022/12/03 01:07:52;;;;;;;30.65;12.88;;;;;;;3.03;72.97;102211.72;5066896;28;20094;-90
2022/12/03 01:10:18;;;;;;;33.75;14.88;;;;;;;3.09;73.10;102228.31;5083563;28;20375;-90
2022/12/03 01:12:43;;;;;;;28.95;13.73;;;;;;;3.08;73.07;102222.22;5085860;28;20032;-90
2022/12/03 01:15:09;;;;;;;34.22;14.63;;;;;;;3.06;73.12;102221.31;5073071;28;20050;-90
2022/12/03 01:17:35;;;;;;;35.17;15.40;;;;;;;3.01;73.09;102210.81;5090317;28;20020;-90
2022/12/03 01:20:01;;;;;;;30.75;13.93;;;;;;;3.06;72.90;102205.63;5091504;28;20047;-90
2022/12/03 01:22:26;;;;;;;31.67;14.32;;;;;;;3.06;72.93;102218.69;5061909;28;20029;-90
2022/12/03 01:24:52;;;;;;;31.30;15.00;;;;;;;3.26;72.26;102214.63;5087434;28;20040;-90
2022/12/03 01:27:17;;;;;;;30.58;14.23;;;;;;;3.09;72.76;102204.81;5070756;28;20102;-90
2022/12/03 01:29:42;;;;;;;30.30;14.55;;;;;;;3.12;73.05;102226.59;5090743;28;20056;-90
2022/12/03 01:32:18;;;;;;;32.55;13.98;;;;;;;3.06;72.89;102213.47;5070620;28;20020;-90
2022/12/03 01:34:52;;;;;;;29.13;14.65;;;;;;;3.06;73.35;102216.97;5089433;28;20028;-90
2022/12/03 01:37:19;;;;;;;36.13;14.45;;;;;;;3.10;72.92;102230.94;5080672;28;20059;-91
2022/12/03 01:39:44;;;;;;;29.98;14.25;;;;;;;3.13;73.00;102219.66;5087086;28;20028;-91
2022/12/03 01:42:15;;;;;;;33.17;14.73;;;;;;;3.14;73.35;102216.19;5068131;28;20034;-90
2022/12/03 01:44:41;;;;;;;27.38;13.77;;;;;;;3.03;73.07;102196.03;5069471;28;20016;-90
2022/12/03 01:47:12;;;;;;;32.40;14.15;;;;;;;3.14;73.06;102217.06;5073786;28;20023;-90
2022/12/03 01:49:49;;;;;;;30.52;15.10;;;;;;;3.15;73.43;102213.59;5072769;28;20019;-91
2022/12/03 01:52:19;;;;;;;32.25;14.88;;;;;;;3.13;72.98;102207.47;5071684;28;20031;-90
2022/12/03 01:54:52;;;;;;;33.22;15.07;;;;;;;3.09;73.64;102204.81;5091252;28;20036;-90
2022/12/03 01:57:23;;;;;;;31.60;14.50;;;;;;;3.28;72.49;102201.56;5072414;28;20035;-90
2022/12/03 01:59:50;;;;;;;34.08;14.75;;;;;;;3.40;71.84;102209.50;5071290;28;20030;-91
2022/12/03 02:02:23;;;;;;;35.75;16.15;;;;;;;3.42;71.67;102205.19;5092151;28;20028;-91
2022/12/03 02:04:48;;;;;;;33.20;14.98;;;;;;;3.32;71.88;102191.16;5091689;28;20383;-90
2022/12/03 02:07:34;;;;;;;36.15;16.02;;;;;;;3.44;71.94;102206.09;5089131;28;20025;-90
2022/12/03 02:10:01;;;;;;;31.55;14.55;;;;;;;3.37;71.92;102201.66;5067678;28;20156;-91
2022/12/03 02:12:37;;;;;;;33.58;14.98;;;;;;;3.40;72.01;102211.25;5086925;28;20020;-91
2022/12/03 02:15:04;;;;;;;38.38;16.35;;;;;;;3.20;73.01;102208.41;5089525;28;20061;-90
2022/12/03 02:17:29;;;;;;;30.65;14.93;;;;;;;3.06;73.18;102192.56;5082590;28;20016;-91
2022/12/03 02:19:56;;;;;;;33.17;14.27;;;;;;;3.16;73.11;102209.22;5088122;28;20032;-90
2022/12/03 02:22:32;;;;;;;32.85;14.80;;;;;;;3.08;73.41;102183.03;5086326;28;20109;-90
2022/12/03 02:24:58;;;;;;;31.63;15.10;;;;;;;3.18;73.28;102204.94;5070355;28;20270;-91
2022/12/03 02:27:24;;;;;;;32.72;14.93;;;;;;;3.19;73.54;102204.94;5090204;28;20035;-90
2022/12/03 02:29:50;;;;;;;29.02;14.82;;;;;;;3.19;73.22;102204.06;5081764;28;20471;-91
2022/12/03 02:32:15;;;;;;;31.35;14.00;;;;;;;3.22;73.15;102196.25;5084955;28;20035;-90
2022/12/03 02:34:43;;;;;;;32.85;14.48;;;;;;;3.14;73.21;102184.84;5069283;28;20031;-90
2022/12/03 02:37:20;;;;;;;35.10;14.90;;;;;;;3.22;73.74;102198.88;5090653;28;20393;-90
2022/12/03 02:39:53;;;;;;;33.30;14.13;;;;;;;3.21;73.32;102189.25;5069153;28;20031;-90
2022/12/03 02:42:34;;;;;;;30.20;14.88;;;;;;;3.21;73.68;102194.50;5067401;28;20020;-90
2022/12/03 02:45:13;;;;;;;34.63;15.45;;;;;;;3.20;73.66;102188.38;5065169;28;20025;-90
2022/12/03 02:47:44;;;;;;;34.42;15.63;;;;;;;3.16;73.57;102188.34;5082320;28;20032;-91
2022/12/03 02:50:12;;;;;;;29.80;14.60;;;;;;;3.13;73.18;102177.88;5060747;28;20028;-90
2022/12/03 02:52:39;;;;;;;30.30;15.57;;;;;;;3.12;73.54;102178.69;5066845;28;20479;-90
2022/12/03 02:55:06;;;;;;;37.88;16.67;;;;;;;3.19;73.35;102189.25;5070507;28;20027;-91
2022/12/03 02:57:33;;;;;;;32.38;15.45;;;;;;;3.18;73.36;102191.84;5088940;28;20482;-90
2022/12/03 02:59:58;;;;;;;28.80;13.73;;;;;;;3.12;73.18;102179.56;5071295;28;20099;-90
2022/12/03 03:02:26;;;;;;;33.83;15.75;;;;;;;3.10;73.21;102183.91;5070231;28;20115;-90
2022/12/03 03:04:52;;;;;;;35.28;14.93;;;;;;;3.18;73.15;102189.25;5088548;28;20502;-91
2022/12/03 03:07:18;;;;;;;33.35;14.07;;;;;;;3.10;73.52;102176.06;5070697;28;20020;-91
2022/12/03 03:09:43;;;;;;;31.70;15.00;;;;;;;3.15;73.39;102187.47;5088632;28;20028;-91
2022/12/03 03:12:09;;;;;;;38.58;16.30;;;;;;;3.14;73.41;102185.72;5060760;28;20086;-91
2022/12/03 03:14:35;;;;;;;35.05;15.68;;;;;;;3.11;73.58;102174.34;5069165;28;20024;-90
2022/12/03 03:17:00;;;;;;;32.42;15.63;;;;;;;3.13;73.51;102178.75;5068927;28;20034;-90
2022/12/03 03:19:25;;;;;;;36.17;15.70;;;;;;;3.13;73.52;102177.88;5089435;28;20499;-91
2022/12/03 03:21:52;;;;;;;31.67;15.30;;;;;;;3.11;73.55;102175.22;5067821;28;20024;-90
2022/12/03 03:24:18;;;;;;;38.50;16.58;;;;;;;3.07;73.53;102160.34;5065509;28;20032;-91
2022/12/03 03:26:43;;;;;;;36.97;16.38;;;;;;;3.12;73.54;102170.84;5087301;28;20073;-90
2022/12/03 03:29:09;;;;;;;32.88;15.57;;;;;;;3.10;73.87;102165.63;5089479;28;20028;-90
2022/12/03 03:31:34;;;;;;;37.35;16.35;;;;;;;3.06;73.63;102156.88;5069383;28;20486;-90
2022/12/03 03:33:59;;;;;;;35.05;15.48;;;;;;;3.13;73.62;102164.81;5069074;28;20488;-90
2022/12/03 03:36:25;;;;;;;34.10;16.45;;;;;;;3.07;73.46;102160.34;5089213;28;20471;-90
2022/12/03 03:38:51;;;;;;;37.42;15.48;;;;;;;3.14;73.52;102171.78;5087915;28;20497;-91
2022/12/03 03:41:18;;;;;;;32.92;15.35;;;;;;;3.06;73.88;102154.25;5087175;28;20062;-91
2022/12/03 03:43:44;;;;;;;33.13;15.25;;;;;;;3.15;73.72;102174.38;5069952;28;20027;-90
2022/12/03 03:46:11;;;;;;;37.47;17.02;;;;;;;3.12;73.76;102158.66;5069858;28;20024;-90
2022/12/03 03:48:37;;;;;;;32.70;16.27;;;;;;;3.04;73.61;102148.16;5067836;28;20368;-90
2022/12/03 03:51:07;;;;;;;34.83;15.93;;;;;;;3.15;73.53;102160.44;5084927;28;20032;-90
2022/12/03 03:53:33;;;;;;;35.03;16.95;;;;;;;3.13;73.51;102163.06;5061631;28;20479;-90
2022/12/03 03:55:58;;;;;;;34.88;16.40;;;;;;;3.11;73.73;102156.03;5088186;28;20102;-90
2022/12/03 03:58:24;;;;;;;37.70;17.00;;;;;;;3.46;72.31;102146.88;5066585;28;20036;-90
2022/12/03 04:00:50;;;;;;;37.55;16.77;;;;;;;3.15;73.25;102156.09;5069875;28;20407;-90
2022/12/03 04:03:15;;;;;;;37.40;16.45;;;;;;;3.18;73.05;102158.75;5086070;28;20467;-91
2022/12/03 04:05:41;;;;;;;32.17;15.20;;;;;;;3.18;73.42;102157.88;5072527;28;20030;-90
2022/12/03 04:08:06;;;;;;;34.42;15.18;;;;;;;3.10;73.58;102136.88;5093263;28;20039;-90
2022/12/03 04:13:15;;;;;;;36.47;17.00;;;;;;;3.13;73.41;102147.38;5085960;28;20403;-91
2022/12/03 04:15:40;;;;;;;36.20;16.60;;;;;;;3.09;73.52;102147.31;5091862;28;20035;-90
2022/12/03 04:20:50;;;;;;;37.47;16.67;;;;;;;3.02;73.55;102133.28;5090348;28;20454;-90
2022/12/03 04:23:15;;;;;;;36.38;17.08;;;;;;;3.13;73.62;102156.97;5073043;28;20032;-90
2022/12/03 04:36:36;;;;;;;36.22;17.02;;;;;;;3.12;74.03;102149.97;5092005;28;20136;-91
2022/12/03 04:39:01;;;;;;;36.50;14.95;;;;;;;3.12;73.78;102152.56;5069798;28;20032;-91
2022/12/03 04:41:27;;;;;;;37.42;17.33;;;;;;;3.13;73.94;102151.72;5085490;28;20093;-90
2022/12/03 04:46:35;;;;;;;33.22;15.98;;;;;;;3.12;73.97;102144.72;5091074;28;20083;-90
2022/12/03 04:49:01;;;;;;;38.22;17.50;;;;;;;3.14;73.97;102140.41;5091861;28;20419;-90
2022/12/03 04:51:26;;;;;;;36.83;17.48;;;;;;;3.11;73.86;102133.41;5085590;28;20061;-90
2022/12/03 04:53:51;;;;;;;35.13;16.02;;;;;;;3.15;74.05;102140.41;5088302;28;20471;-90
2022/12/03 04:56:16;;;;;;;37.40;16.25;;;;;;;3.12;74.10;102132.53;5091465;28;20157;-90
2022/12/03 04:58:42;;;;;;;37.45;16.63;;;;;;;3.20;73.86;102141.34;5074095;28;20468;-90
2022/12/03 05:01:07;;;;;;;35.13;15.95;;;;;;;3.18;73.69;102135.25;5090326;28;20031;-90
2022/12/03 05:03:33;;;;;;;38.80;16.88;;;;;;;3.22;73.74;102138.78;5083543;28;20108;-91
2022/12/03 05:05:58;;;;;;;35.15;16.85;;;;;;;3.13;73.58;102133.44;5088952;28;20035;-91
2022/12/03 05:08:23;;;;;;;35.88;15.93;;;;;;;3.19;73.76;102133.50;5072956;28;20542;-90
2022/12/03 05:10:49;;;;;;;35.00;17.08;;;;;;;3.14;73.65;102128.22;5088942;28;20029;-91
2022/12/03 05:13:14;;;;;;;35.45;17.58;;;;;;;3.19;74.15;102128.28;5079100;28;20028;-91
2022/12/03 05:15:39;;;;;;;43.40;18.05;;;;;;;3.16;73.64;102123.88;5082716;28;20028;-90
2022/12/03 05:18:04;;;;;;;36.00;17.50;;;;;;;3.13;73.87;102125.59;5072883;28;20387;-91
2022/12/03 05:20:42;;;;;;;40.15;17.15;;;;;;;3.15;73.88;102127.34;5091473;28;20028;-91
2022/12/03 05:23:12;;;;;;;38.13;16.00;;;;;;;3.22;74.08;102136.16;5072022;28;20475;-90
2022/12/03 05:25:39;;;;;;;37.55;16.65;;;;;;;3.18;74.08;102132.63;5092386;28;20051;-90
2022/12/03 05:28:05;;;;;;;33.05;17.35;;;;;;;3.32;73.67;102138.00;5090781;28;20048;-91
2022/12/03 05:30:31;;;;;;;35.90;17.20;;;;;;;3.37;72.96;102133.69;5088933;28;20477;-91
2022/12/03 05:32:56;;;;;;;35.33;16.73;;;;;;;3.33;73.04;102116.22;5071584;28;20081;-90
2022/12/03 05:35:21;;;;;;;39.58;18.15;;;;;;;3.11;73.80;102125.56;5069614;28;20032;-90
2022/12/03 05:37:47;;;;;;;39.10;17.50;;;;;;;3.16;74.04;102133.47;5091959;28;20177;-90
2022/12/03 05:40:12;;;;;;;40.80;17.73;;;;;;;3.04;74.25;102116.78;5072511;28;20023;-90
2022/12/03 05:42:53;;;;;;;39.13;17.20;;;;;;;3.15;74.56;102121.25;5070911;28;20016;-91
2022/12/03 05:45:20;;;;;;;36.80;17.80;;;;;;;3.10;74.02;102123.81;5090135;28;20546;-91
2022/12/03 05:47:46;;;;;;;36.35;17.75;;;;;;;3.05;74.40;102117.66;5062050;28;20115;-91
2022/12/03 05:50:11;;;;;;;38.63;17.95;;;;;;;3.08;74.39;102117.72;5091906;28;20099;-90
2022/12/03 05:52:37;;;;;;;43.00;18.63;;;;;;;3.08;74.46;102115.09;5082970;28;20024;-90
2022/12/03 05:55:02;;;;;;;37.47;17.13;;;;;;;3.03;74.89;102111.53;5090141;28;20028;-91
2022/12/03 05:57:28;;;;;;;49.22;18.90;;;;;;;3.02;74.73;102109.78;5089831;28;20403;-90
2022/12/03 05:59:53;;;;;;;39.00;18.20;;;;;;;3.02;74.54;102113.28;5089028;28;20028;-90
2022/12/03 06:02:18;;;;;;;33.58;16.90;;;;;;;3.03;75.00;102106.31;5087676;28;20048;-90
2022/12/03 06:04:43;;;;;;;34.58;17.02;;;;;;;2.98;74.61;102101.03;5072090;28;20084;-90
2022/12/03 06:07:09;;;;;;;42.30;18.33;;;;;;;3.02;74.76;102109.78;5091528;28;20506;-90
2022/12/03 06:09:34;;;;;;;40.28;17.70;;;;;;;2.99;75.13;102108.03;5088828;28;20168;-90
2022/12/03 06:11:59;;;;;;;41.72;17.85;;;;;;;2.99;74.72;102099.31;5065556;28;20117;-91
2022/12/03 06:14:25;;;;;;;40.38;18.42;;;;;;;3.14;74.25;102109.06;5067509;28;20028;-91
2022/12/03 06:16:50;;;;;;;39.25;18.60;;;;;;;3.10;74.34;102117.72;5088222;28;20039;-91
2022/12/03 06:19:16;;;;;;;36.10;17.10;;;;;;;3.07;74.86;102101.13;5091022;28;20031;-91
2022/12/03 06:21:42;;;;;;;41.13;17.63;;;;;;;3.19;74.12;102103.00;5087118;28;20028;-90
2022/12/03 06:24:07;;;;;;;41.00;17.70;;;;;;;3.15;73.88;102105.59;5085578;28;20501;-91
2022/12/03 06:26:32;;;;;;;36.92;16.52;;;;;;;3.05;74.23;102105.47;5070396;28;20063;-90
2022/12/03 06:28:58;;;;;;;41.10;17.85;;;;;;;3.14;74.17;102101.22;5090996;28;20081;-90
2022/12/03 06:31:23;;;;;;;43.83;18.95;;;;;;;3.02;74.28;102095.00;5070921;28;20028;-91
2022/12/03 06:33:48;;;;;;;41.97;18.50;;;;;;;3.02;74.53;102110.66;5088315;28;20024;-90
2022/12/03 06:36:13;;;;;;;39.13;18.38;;;;;;;3.02;74.29;102108.03;5063497;28;20495;-91
2022/12/03 06:38:39;;;;;;;40.72;18.27;;;;;;;2.97;74.90;102109.72;5090880;28;20024;-91
2022/12/03 06:41:04;;;;;;;39.63;18.83;;;;;;;2.96;74.64;102101.91;5087859;28;20031;-90
2022/12/03 06:43:29;;;;;;;44.70;18.48;;;;;;;2.99;75.18;102113.25;5088686;28;20490;-90
2022/12/03 06:45:55;;;;;;;41.13;17.58;;;;;;;2.92;74.85;102097.47;5073081;28;20089;-90
2022/12/03 06:48:21;;;;;;;43.63;18.75;;;;;;;2.93;75.08;102099.22;5072292;28;20123;-91
2022/12/03 06:50:46;;;;;;;42.08;18.33;;;;;;;2.92;75.22;102106.19;5070557;28;20506;-90
2022/12/03 06:53:11;;;;;;;40.58;18.25;;;;;;;2.85;75.32;102087.84;5088829;28;20132;-90
2022/12/03 06:55:36;;;;;;;37.70;17.17;;;;;;;2.88;75.29;102099.19;5064440;28;20027;-90
2022/12/03 06:58:02;;;;;;;39.90;18.77;;;;;;;2.96;75.38;102105.38;5070155;28;20032;-91
2022/12/03 07:00:27;;;;;;;39.85;17.75;;;;;;;2.92;75.10;102093.13;5066274;28;20464;-91
2022/12/03 07:02:52;;;;;;;41.50;18.55;;;;;;;2.96;75.17;102102.75;5061134;28;20051;-91
2022/12/03 07:05:18;;;;;;;36.30;16.33;;;;;;;2.90;75.10;102096.59;5071164;28;20028;-90
2022/12/03 07:07:44;;;;;;;38.70;17.63;;;;;;;2.91;75.06;102094.00;5088404;28;20024;-90
2022/12/03 07:10:09;;;;;;;37.83;17.33;;;;;;;2.93;74.96;102100.09;5090039;28;20118;-90
2022/12/03 07:12:35;;;;;;;38.13;17.27;;;;;;;2.97;75.11;102106.25;5068806;28;20119;-91
2022/12/03 07:15:00;;;;;;;39.75;16.80;;;;;;;2.94;75.05;102101.88;5087522;28;20027;-91
2022/12/03 07:17:25;;;;;;;37.75;16.90;;;;;;;2.98;75.00;102108.88;5087162;28;20539;-90
2022/12/03 07:19:51;;;;;;;41.80;16.30;;;;;;;2.97;74.90;102101.03;5089512;28;20028;-90
2022/12/03 07:22:16;;;;;;;40.33;17.35;;;;;;;3.00;74.33;102101.06;5068310;28;20433;-90
2022/12/03 07:24:41;;;;;;;41.10;17.42;;;;;;;2.99;74.78;102102.81;5088333;28;20215;-90
2022/12/03 07:27:07;;;;;;;37.30;17.52;;;;;;;2.96;74.61;102099.28;5083115;28;20503;-91
2022/12/03 07:29:32;;;;;;;39.17;17.63;;;;;;;2.95;74.77;102087.97;5071315;28;20028;-90
2022/12/03 07:31:57;;;;;;;39.00;16.58;;;;;;;2.97;74.68;102101.91;5084917;28;20444;-90
2022/12/03 07:34:22;;;;;;;41.28;15.52;;;;;;;3.03;74.85;102106.31;5086885;28;20036;-91
2022/12/03 07:36:48;;;;;;;37.17;17.48;;;;;;;2.98;74.48;102093.19;5070627;28;20039;-91
2022/12/03 07:39:13;;;;;;;37.88;16.38;;;;;;;2.99;74.24;102097.59;5074098;28;20064;-91
2022/12/03 07:41:38;;;;;;;37.28;15.45;;;;;;;3.05;74.57;102105.47;5072733;28;20085;-91
2022/12/03 07:44:04;;;;;;;34.75;15.63;;;;;;;2.99;74.35;102081.91;5090461;28;20028;-91
2022/12/03 07:46:29;;;;;;;35.10;15.50;;;;;;;3.09;73.86;102101.19;5071697;28;20486;-91
2022/12/03 07:48:55;;;;;;;40.78;16.63;;;;;;;3.06;74.42;102102.00;5092695;28;20028;-91
2022/12/03 07:51:20;;;;;;;37.45;15.80;;;;;;;2.96;74.35;102084.47;5092670;28;20464;-90
2022/12/03 07:53:45;;;;;;;39.70;17.10;;;;;;;3.00;74.29;102094.09;5072023;28;20027;-90
2022/12/03 07:56:11;;;;;;;37.92;16.83;;;;;;;2.98;73.81;102101.03;5073991;28;20483;-91
2022/12/03 07:58:36;;;;;;;31.90;14.68;;;;;;;2.97;73.90;102098.41;5073625;28;20028;-90
2022/12/03 08:01:01;;;;;;;39.53;16.33;;;;;;;3.06;73.93;102101.13;5073589;28;20510;-90
2022/12/03 08:03:26;;;;;;;36.90;15.43;;;;;;;3.27;72.58;102113.56;5069166;28;20069;-90
2022/12/03 08:05:52;;;;;;;31.55;15.18;;;;;;;3.35;72.25;102109.25;5094043;28;20487;-91
2022/12/03 08:08:17;;;;;;;32.90;15.10;;;;;;;3.09;72.52;102111.63;5089474;28;20281;-90
2022/12/03 08:10:42;;;;;;;40.17;16.50;;;;;;;3.03;72.91;102108.91;5090136;28;20024;-90
2022/12/03 08:13:15;;;;;;;35.90;14.73;;;;;;;3.04;73.13;102111.56;5071604;28;20119;-90
2022/12/03 08:15:41;;;;;;;31.85;14.38;;;;;;;3.10;73.51;102112.50;5073462;28;20028;-90
2022/12/03 08:18:13;;;;;;;33.38;15.45;;;;;;;3.04;73.70;102114.19;5087990;28;20032;-90
2022/12/03 08:20:40;;;;;;;38.50;16.92;;;;;;;3.03;73.51;102108.91;5074554;28;20111;-90
2022/12/03 08:23:14;;;;;;;35.97;14.63;;;;;;;3.03;73.66;102111.53;5090818;28;20031;-91
2022/12/03 08:25:40;;;;;;;35.63;14.95;;;;;;;3.12;73.60;102122.09;5093806;28;20020;-90
2022/12/03 08:28:14;;;;;;;36.35;15.30;;;;;;;3.14;73.90;102122.13;5092691;28;20039;-90
2022/12/03 08:30:41;;;;;;;35.03;14.63;;;;;;;3.08;73.92;102104.66;5074409;28;20046;-90
2022/12/03 08:33:27;;;;;;;35.80;16.20;;;;;;;3.18;73.80;102118.69;5086774;28;20518;-91
2022/12/03 08:35:53;;;;;;;35.38;15.57;;;;;;;3.14;74.05;102120.38;5063179;28;20043;-91
2022/12/03 08:38:21;;;;;;;37.20;15.23;;;;;;;3.21;74.13;102116.09;5055710;28;20020;-90
2022/12/03 08:40:49;;;;;;;33.42;14.85;;;;;;;3.25;73.96;102126.59;5069210;28;20062;-91
2022/12/03 08:43:20;;;;;;;40.53;17.38;;;;;;;3.23;74.08;102119.63;5065792;28;20080;-90
2022/12/03 08:45:48;;;;;;;43.55;18.33;;;;;;;3.24;73.79;102121.34;5074253;28;20026;-91
2022/12/03 08:48:32;;;;;;;36.70;16.25;;;;;;;3.29;73.74;102114.44;5088549;28;20024;-90
2022/12/03 08:51:19;;;;;;;38.70;16.67;;;;;;;3.35;73.69;102118.84;5089288;28;20032;-90
2022/12/03 08:54:11;;;;;;;38.75;15.70;;;;;;;3.33;73.66;102111.88;5071495;28;20028;-90
2022/12/03 08:56:37;;;;;;;36.42;16.08;;;;;;;3.27;72.89;102103.09;5091263;28;20038;-90
2022/12/03 08:59:29;;;;;;;38.05;16.40;;;;;;;3.33;73.08;102111.88;5091602;28;20036;-91
2022/12/03 09:01:56;;;;;;;41.50;16.58;;;;;;;3.20;73.25;102094.31;5071502;28;20020;-90
2022/12/03 09:04:27;;;;;;;35.95;15.20;;;;;;;3.31;73.28;102116.22;5069591;28;20429;-91
2022/12/03 09:06:53;;;;;;;37.08;14.85;;;;;;;3.32;72.75;102112.75;5064687;28;20107;-90
2022/12/03 09:09:20;;;;;;;35.58;15.38;;;;;;;3.20;72.50;102109.13;5092744;28;20039;-90
2022/12/03 09:11:45;;;;;;;39.92;16.90;;;;;;;3.25;72.70;102116.13;5088681;28;20443;-90
2022/12/03 09:14:11;;;;;;;39.17;15.40;;;;;;;3.22;72.24;102110.03;5084024;28;20060;-90
2022/12/03 09:16:36;;;;;;;39.53;16.27;;;;;;;3.25;72.48;102110.91;5087732;28;20052;-91
2022/12/03 09:19:01;;;;;;;32.95;14.70;;;;;;;3.27;72.05;102117.06;5091155;28;20399;-91
2022/12/03 09:21:27;;;;;;;38.17;15.60;;;;;;;3.30;71.73;102119.66;5092188;28;20494;-90
2022/12/03 09:23:52;;;;;;;39.97;15.80;;;;;;;3.40;71.11;102125.88;5072639;28;20487;-90
2022/12/03 09:26:17;;;;;;;38.95;15.07;;;;;;;3.22;71.98;102110.91;5091962;28;20103;-90
2022/12/03 09:28:43;;;;;;;40.88;17.13;;;;;;;3.21;71.59;102116.09;5089283;28;20031;-91
2022/12/03 09:31:08;;;;;;;40.20;15.20;;;;;;;3.22;71.78;102113.50;5070458;28;20156;-90
2022/12/03 09:33:34;;;;;;;44.53;16.75;;;;;;;3.15;71.41;102108.19;5082050;28;20095;-90
2022/12/03 09:35:59;;;;;;;42.78;17.88;;;;;;;3.19;71.68;102118.69;5082009;28;20044;-90
2022/12/03 09:38:24;;;;;;;46.90;19.30;;;;;;;3.16;71.25;102118.66;5072572;28;20116;-90
2022/12/03 09:40:50;;;;;;;45.47;19.27;;;;;;;3.04;71.70;102113.31;5073850;28;20026;-90
2022/12/03 09:43:16;;;;;;;42.45;17.02;;;;;;;3.13;72.12;102113.41;5066581;28;20027;-90
2022/12/03 09:45:44;;;;;;;45.05;17.30;;;;;;;3.16;72.02;102115.16;5059973;28;20040;-90
2022/12/03 09:48:12;;;;;;;41.13;16.20;;;;;;;3.13;72.40;102102.97;5089629;28;20028;-91
2022/12/03 09:50:40;;;;;;;41.28;16.15;;;;;;;3.11;71.91;102104.66;5089577;28;20491;-90
2022/12/03 09:53:11;;;;;;;37.17;16.58;;;;;;;3.07;72.32;102095.91;5066683;28;20060;-90
2022/12/03 09:55:44;;;;;;;40.00;16.20;;;;;;;3.14;72.39;102098.59;5088559;28;20040;-90
2022/12/03 09:58:16;;;;;;;44.55;16.63;;;;;;;3.13;72.46;102094.25;5082097;28;20036;-90
2022/12/03 10:00:46;;;;;;;38.92;16.40;;;;;;;3.14;71.89;102096.88;5061177;28;20113;-90
2022/12/03 10:03:14;;;;;;;37.88;15.85;;;;;;;3.12;71.72;102087.25;5066694;28;20028;-90
2022/12/03 10:05:39;;;;;;;33.10;14.43;;;;;;;3.05;71.13;102084.59;5086082;28;21349;-90
2022/12/03 10:08:09;;;;;;;34.92;13.75;;;;;;;3.09;71.84;102108.13;5064071;28;20028;-90
2022/12/03 10:10:35;;;;;;;30.95;13.52;;;;;;;3.04;71.05;102090.66;5065805;28;20028;-91
2022/12/03 10:13:01;;;;;;;34.83;13.98;;;;;;;3.22;71.24;102084.75;5083154;28;20035;-90
2022/12/03 10:15:26;;;;;;;34.97;13.80;;;;;;;3.31;71.17;102084.84;5087252;28;20048;-91
2022/12/03 10:17:53;;;;;;;33.03;14.15;;;;;;;3.25;71.11;102074.31;5086449;28;20113;-90
2022/12/03 10:20:22;;;;;;;36.15;13.60;;;;;;;3.18;71.13;102089.94;5085428;28;20475;-90
2022/12/03 10:22:48;;;;;;;32.30;13.55;;;;;;;3.25;71.04;102073.44;5065231;28;20077;-90
2022/12/03 10:25:17;;;;;;;32.85;13.27;;;;;;;3.23;71.37;102077.81;5084197;28;20036;-91
2022/12/03 10:27:55;;;;;;;29.90;12.75;;;;;;;3.18;71.13;102075.13;5069781;28;20029;-90
2022/12/03 10:30:22;;;;;;;32.85;13.05;;;;;;;3.16;71.01;102060.28;5068765;28;20133;-90
2022/12/03 10:32:49;;;;;;;28.13;12.70;;;;;;;3.13;70.64;102069.00;5068333;28;20032;-90
2022/12/03 10:35:24;;;;;;;33.55;12.85;;;;;;;3.07;70.42;102064.56;5066152;28;20103;-90
2022/12/03 10:38:01;;;;;;;29.48;11.52;;;;;;;3.09;70.42;102067.22;5070128;28;20044;-90
2022/12/03 10:40:30;;;;;;;30.60;12.20;;;;;;;3.04;70.54;102055.84;5063672;28;20036;-91
2022/12/03 10:43:31;;;;;;;27.40;12.18;;;;;;;3.15;70.54;102050.72;5065586;28;20031;-91
2022/12/03 10:46:02;;;;;;;27.92;10.63;;;;;;;3.38;70.05;102051.81;5008029;28;20062;-91
2022/12/03 10:48:28;;;;;;;29.60;13.35;;;;;;;3.28;70.01;102039.50;5073751;28;20480;-90
2022/12/03 10:50:55;;;;;;;32.97;13.10;;;;;;;3.28;69.95;102040.38;5068796;28;20028;-91
2022/12/03 10:53:26;;;;;;;30.70;12.35;;;;;;;3.30;69.25;102032.56;5066873;28;20063;-90
2022/12/03 10:55:57;;;;;;;27.00;10.95;;;;;;;3.40;69.30;102034.38;5087763;28;20067;-90
2022/12/03 10:58:24;;;;;;;28.20;11.75;;;;;;;3.49;69.26;102026.63;5081762;28;20044;-91
2022/12/03 11:00:52;;;;;;;29.73;12.57;;;;;;;3.58;69.32;102021.47;5067459;28;20528;-90
2022/12/03 11:03:23;;;;;;;27.80;11.57;;;;;;;3.64;68.95;102018.03;5066974;28;20302;-89
2022/12/03 11:05:49;;;;;;;26.75;11.82;;;;;;;3.64;68.14;102020.66;5064345;28;20484;-90
2022/12/03 11:08:21;;;;;;;30.90;12.52;;;;;;;3.64;69.00;102025.88;5066816;28;20016;-91
2022/12/03 11:10:56;;;;;;;25.83;11.40;;;;;;;3.81;68.81;102031.22;5062993;28;20028;-91
2022/12/03 11:13:32;;;;;;;24.95;11.77;;;;;;;3.65;67.57;102011.06;5064679;28;20028;-90
2022/12/03 11:15:59;;;;;;;25.65;10.55;;;;;;;3.73;67.58;102022.44;5064645;28;20031;-90
2022/12/03 11:18:37;;;;;;;23.40;10.40;;;;;;;3.74;68.84;102017.22;5086004;28;20035;-90
2022/12/03 11:21:05;;;;;;;24.63;10.38;;;;;;;3.74;68.13;102018.97;5078081;28;20104;-90
2022/12/03 11:23:45;;;;;;;23.50;12.00;;;;;;;3.76;68.11;102012.00;5083364;28;20467;-90
2022/12/03 11:26:15;;;;;;;27.60;11.45;;;;;;;3.58;67.48;101992.69;5066365;28;20059;-89
2022/12/03 11:28:55;;;;;;;23.35;9.73;;;;;;;3.68;67.00;102004.09;5070051;28;20020;-91
2022/12/03 11:31:39;;;;;;;23.95;12.07;;;;;;;3.70;67.79;102006.75;5089053;28;20255;-89
2022/12/03 11:50:37;;;;;;;25.10;12.40;;;;;;;3.50;68.61;101986.56;5091730;27;20238;-90
2022/12/03 11:53:22;;;;;;;25.88;11.68;;;;;;;3.37;67.96;101976.00;5036610;28;20067;-90
2022/12/03 11:56:05;;;;;;;26.58;11.40;;;;;;;3.31;67.80;101977.69;5057457;28;20458;-90